Wind Star — C6CA9 — position and weather

sailwx.info

Track history (hours):
 
Tides and Currents Weather Stations Pressure Air Temp Water Temp Dewpoint Dewpoint Depression Visibility Wind Speed Wind Dir Waves Ship Positions

Wind Star

Operator: Holland America Line

Last reported at 2014-Sep-15 23:33 UTC. Time now 2014-Sep-17 17:40 UTC.
Position N 37°20' E 026°54'.

Length 135 m; draft 4.1 m.

Type: Ship. MMSI: 309163000.

Date/timePositionNaut miles runAvg speedWind from/ knotsBaromVisibWave heightAir tempDewpointWater temp
2014-Sep-15 23:33N 37°20' E 026°54'59 2.3
2014-Sep-14 21:30N 38°11' E 026°16'207 6.7
2014-Sep-13 14:32N 40°57' E 028°56'5 0.5
2014-Sep-13 03:29N 41°01' E 028°59'5 5.9
2014-Sep-13 02:33N 40°56' E 028°59'7 6.7
2014-Sep-13 01:30N 40°52' E 028°51'7 6.4
2014-Sep-13 00:24N 40°50' E 028°42'193 6.3
2014-Sep-11 17:34N 38°09' E 026°23'2010.2
2014-Sep-11 15:33N 38°01' E 026°47'14 9.6
2014-Sep-11 14:08N 37°56' E 027°03'5 9.1
2014-Sep-11 13:33N 37°54' E 027°09'  
2014-Sep-08 17:24N 36°19' E 026°11'1011.1
2014-Sep-08 16:32N 36°19' E 025°59'1111.1
2014-Sep-08 15:33N 36°20' E 025°46'1111.4
2014-Sep-08 14:33N 36°19' E 025°32'9 8.6
2014-Sep-08 13:33N 36°22' E 025°22'4 2.0
2014-Sep-08 11:33N 36°25' E 025°25'0 0.0
2014-Sep-08 08:30N 36°25' E 025°25'0 0.0
2014-Sep-08 07:12N 36°25' E 025°25'0 0.2
2014-Sep-08 06:29N 36°25' E 025°25'0 0.1
2014-Sep-08 05:29N 36°25' E 025°25'0 0.3
2014-Sep-08 04:33N 36°25' E 025°25'6 6.1
2014-Sep-08 03:33N 36°30' E 025°20'6 5.6
2014-Sep-08 02:33N 36°34' E 025°16'6 5.7
2014-Sep-08 01:33N 36°40' E 025°14'6 5.8
2014-Sep-08 00:33N 36°45' E 025°11'5 4.7
2014-Sep-07 23:33N 36°50' E 025°12'6 5.9
2014-Sep-07 22:34N 36°54' E 025°16'6 5.6
2014-Sep-07 21:33N 36°60' E 025°17'6 6.2
2014-Sep-07 20:33N 37°06' E 025°18'6 6.3
2014-Sep-07 19:33N 37°12' E 025°19'6 6.3
2014-Sep-07 18:33N 37°18' E 025°18'7 7.1
2014-Sep-07 17:33N 37°25' E 025°17'2 2.1
2014-Sep-07 16:33N 37°27' E 025°19'0 0.0
2014-Sep-07 15:33N 37°27' E 025°19'0 0.0
2014-Sep-07 14:33N 37°27' E 025°19'0 0.0
2014-Sep-07 13:33N 37°27' E 025°19'0 0.0
2014-Sep-07 12:33N 37°27' E 025°19'0 0.0
2014-Sep-07 11:33N 37°27' E 025°19'0 0.0
2014-Sep-07 10:33N 37°27' E 025°19'0 0.1
2014-Sep-07 09:33N 37°27' E 025°19'0 0.1
2014-Sep-07 08:33N 37°27' E 025°19'0 0.0
2014-Sep-07 07:33N 37°27' E 025°19'0 0.0
2014-Sep-07 06:33N 37°27' E 025°19'0 0.0
2014-Sep-07 05:33N 37°27' E 025°19'0 0.0
2014-Sep-07 04:33N 37°27' E 025°19'2 2.5
2014-Sep-07 03:33N 37°28' E 025°16'7 6.7
2014-Sep-07 02:33N 37°29' E 025°08'6 6.5
2014-Sep-07 01:33N 37°31' E 025°00'8 6.8
2014-Sep-07 00:22N 37°32' E 024°50'6 7.3
2014-Sep-06 23:33N 37°30' E 024°43'7 6.8
2014-Sep-06 22:33N 37°29' E 024°34'6 6.1
2014-Sep-06 21:33N 37°30' E 024°27'26 6.3
2014-Sep-06 17:27N 37°38' E 023°56'10 8.0
2014-Sep-06 16:09N 37°40' E 023°43'610.2
2014-Sep-06 15:33N 37°45' E 023°40'10 9.6
2014-Sep-06 14:33N 37°55' E 023°37'2 1.7
2014-Sep-06 13:28N 37°56' E 023°38'0 0.0
2014-Sep-06 12:28N 37°56' E 023°38'0 0.0
2014-Sep-06 11:16N 37°56' E 023°38'0 0.0
2014-Sep-06 10:22N 37°56' E 023°38'0 0.0
2014-Sep-06 09:28N 37°56' E 023°38'0 0.0
2014-Sep-06 08:22N 37°56' E 023°38'0 0.0
2014-Sep-06 07:28N 37°56' E 023°38'0 0.0
2014-Sep-06 06:16N 37°56' E 023°38'0 0.0
2014-Sep-06 05:28N 37°56' E 023°38'0 0.0
2014-Sep-06 04:28N 37°56' E 023°38'2 1.9
2014-Sep-06 03:33N 37°55' E 023°37'3 3.2
2014-Sep-06 02:33N 37°52' E 023°38'7 6.9
2014-Sep-06 01:34N 37°46' E 023°42'7 6.9
2014-Sep-06 00:33N 37°40' E 023°46'  
Track history (hours):
 
Tides and Currents Weather Stations Pressure Air Temp Water Temp Dewpoint Dewpoint Depression Visibility Wind Speed Wind Dir Waves Ship Positions

Wind Star

Operator: Holland America Line

Last reported at 2014-Sep-15 23:33 UTC. Time now 2014-Sep-17 17:40 UTC.
Position N 37°20' E 026°54'.

Length 135 m; draft 4.1 m.

Type: Ship. MMSI: 309163000.

Date/timePositionNaut miles runAvg speedWind from/ knotsBaromVisibWave heightAir tempDewpointWater temp
2014-Sep-15 23:33N 37°20' E 026°54'59 2.3
2014-Sep-14 21:30N 38°11' E 026°16'207 6.7
2014-Sep-13 14:32N 40°57' E 028°56'5 0.5
2014-Sep-13 03:29N 41°01' E 028°59'5 5.9
2014-Sep-13 02:33N 40°56' E 028°59'7 6.7
2014-Sep-13 01:30N 40°52' E 028°51'7 6.4
2014-Sep-13 00:24N 40°50' E 028°42'193 6.3
2014-Sep-11 17:34N 38°09' E 026°23'2010.2
2014-Sep-11 15:33N 38°01' E 026°47'14 9.6
2014-Sep-11 14:08N 37°56' E 027°03'5 9.1
2014-Sep-11 13:33N 37°54' E 027°09'  
2014-Sep-08 17:24N 36°19' E 026°11'1011.1
2014-Sep-08 16:32N 36°19' E 025°59'1111.1
2014-Sep-08 15:33N 36°20' E 025°46'1111.4
2014-Sep-08 14:33N 36°19' E 025°32'9 8.6
2014-Sep-08 13:33N 36°22' E 025°22'4 2.0
2014-Sep-08 11:33N 36°25' E 025°25'0 0.0
2014-Sep-08 08:30N 36°25' E 025°25'0 0.0
2014-Sep-08 07:12N 36°25' E 025°25'0 0.2
2014-Sep-08 06:29N 36°25' E 025°25'0 0.1
2014-Sep-08 05:29N 36°25' E 025°25'0 0.3
2014-Sep-08 04:33N 36°25' E 025°25'6 6.1
2014-Sep-08 03:33N 36°30' E 025°20'6 5.6
2014-Sep-08 02:33N 36°34' E 025°16'6 5.7
2014-Sep-08 01:33N 36°40' E 025°14'6 5.8
2014-Sep-08 00:33N 36°45' E 025°11'5 4.7
2014-Sep-07 23:33N 36°50' E 025°12'6 5.9
2014-Sep-07 22:34N 36°54' E 025°16'6 5.6
2014-Sep-07 21:33N 36°60' E 025°17'6 6.2
2014-Sep-07 20:33N 37°06' E 025°18'6 6.3
2014-Sep-07 19:33N 37°12' E 025°19'6 6.3
2014-Sep-07 18:33N 37°18' E 025°18'7 7.1
2014-Sep-07 17:33N 37°25' E 025°17'2 2.1
2014-Sep-07 16:33N 37°27' E 025°19'0 0.0
2014-Sep-07 15:33N 37°27' E 025°19'0 0.0
2014-Sep-07 14:33N 37°27' E 025°19'0 0.0
2014-Sep-07 13:33N 37°27' E 025°19'0 0.0
2014-Sep-07 12:33N 37°27' E 025°19'0 0.0
2014-Sep-07 11:33N 37°27' E 025°19'0 0.0
2014-Sep-07 10:33N 37°27' E 025°19'0 0.1
2014-Sep-07 09:33N 37°27' E 025°19'0 0.1
2014-Sep-07 08:33N 37°27' E 025°19'0 0.0
2014-Sep-07 07:33N 37°27' E 025°19'0 0.0
2014-Sep-07 06:33N 37°27' E 025°19'0 0.0
2014-Sep-07 05:33N 37°27' E 025°19'0 0.0
2014-Sep-07 04:33N 37°27' E 025°19'2 2.5
2014-Sep-07 03:33N 37°28' E 025°16'7 6.7
2014-Sep-07 02:33N 37°29' E 025°08'6 6.5
2014-Sep-07 01:33N 37°31' E 025°00'8 6.8
2014-Sep-07 00:22N 37°32' E 024°50'6 7.3
2014-Sep-06 23:33N 37°30' E 024°43'7 6.8
2014-Sep-06 22:33N 37°29' E 024°34'6 6.1
2014-Sep-06 21:33N 37°30' E 024°27'26 6.3
2014-Sep-06 17:27N 37°38' E 023°56'10 8.0
2014-Sep-06 16:09N 37°40' E 023°43'610.2
2014-Sep-06 15:33N 37°45' E 023°40'10 9.6
2014-Sep-06 14:33N 37°55' E 023°37'2 1.7
2014-Sep-06 13:28N 37°56' E 023°38'0 0.0
2014-Sep-06 12:28N 37°56' E 023°38'0 0.0
2014-Sep-06 11:16N 37°56' E 023°38'0 0.0
2014-Sep-06 10:22N 37°56' E 023°38'0 0.0
2014-Sep-06 09:28N 37°56' E 023°38'0 0.0
2014-Sep-06 08:22N 37°56' E 023°38'0 0.0
2014-Sep-06 07:28N 37°56' E 023°38'0 0.0
2014-Sep-06 06:16N 37°56' E 023°38'0 0.0
2014-Sep-06 05:28N 37°56' E 023°38'0 0.0
2014-Sep-06 04:28N 37°56' E 023°38'2 1.9
2014-Sep-06 03:33N 37°55' E 023°37'3 3.2
2014-Sep-06 02:33N 37°52' E 023°38'7 6.9
2014-Sep-06 01:34N 37°46' E 023°42'7 6.9
2014-Sep-06 00:33N 37°40' E 023°46'  

Dump ship's entire track history